»·PEaware :: FDX1369 KOAK-KSNA

FDX1369 :: KOAK-KSNA

FLIGHT INFORMATION

Flight Status: Arrived
Operator:
Federal Express
More flights by this operator :: More flights under this callsign
Pilot: Matthew M. (8235)
Aircraft: AIRBUS A300B4-600
(A306)
More flights by this aircraft type
Origin: KOAK Metro Oakland Intl
United States
Destination: KSNA John Wayne-Orange Co
United States
More flights between these airports :: More routes between these airports
Route: CNDEL5 YYUNG TILLT TILLT2
File this flight plan on PilotEdge
Remarks:
Altitude:
(Current/Filed)
33,000ft
Speed:
(Current/Filed)
473kts
Departed: 08-Oct-21 04:49 PM
Arrived: 08-Oct-21 05:52 PM
Distance/Time
Traveled:
322nm/1:03
Distance/Time
To Go:
Arrived

Flight Plot

Page will automatically refresh every two minutes.

Flight plan parsing failed; only flown route is shown


Map Options




Map Legend


Flown Route
Filed Route
Departure Airport
Arrival Airport
Navaid (VOR, NDB)
Fix

Horizontal Profiles

Position Reports

Time Latitude Longitude Heading Altitude Ground
Speed
08-Oct-21 16:28 37.717090 -122.217862 130 19ft 0kts
08-Oct-21 16:29 37.717090 -122.217862 130 19ft 0kts
08-Oct-21 16:30 37.717090 -122.217862 130 19ft 0kts
08-Oct-21 16:31 37.717090 -122.217862 130 19ft 0kts
08-Oct-21 16:32 37.717090 -122.217862 130 19ft 0kts
08-Oct-21 16:33 37.717090 -122.217862 130 19ft 0kts
08-Oct-21 16:34 37.717090 -122.217862 130 19ft 0kts
08-Oct-21 16:35 37.717090 -122.217862 130 19ft 0kts
08-Oct-21 16:36 37.717091 -122.217863 130 19ft 0kts
08-Oct-21 16:37 37.717190 -122.218010 136 19ft 2kts
08-Oct-21 16:38 37.717740 -122.218252 187 19ft 2kts
08-Oct-21 16:39 37.717961 -122.218175 205 19ft 0kts
08-Oct-21 16:40 37.717961 -122.218175 205 19ft 0kts
08-Oct-21 16:41 37.717761 -122.218318 212 19ft 5kts
08-Oct-21 16:42 37.715569 -122.220359 141 19ft 1kts
08-Oct-21 16:43 37.713417 -122.221600 228 19ft 19kts
08-Oct-21 16:44 37.709252 -122.222166 129 19ft 18kts
08-Oct-21 16:45 37.706058 -122.217360 129 19ft 17kts
08-Oct-21 16:46 37.703060 -122.213605 162 19ft 5kts
08-Oct-21 16:47 37.701766 -122.214055 221 19ft 14kts
08-Oct-21 16:48 37.709762 -122.226584 308 19ft 150kts
08-Oct-21 16:49 37.745162 -122.279495 307 2179ft 231kts
08-Oct-21 16:50 37.788925 -122.345790 301 5522ft 256kts
08-Oct-21 16:51 37.752297 -122.406526 195 9034ft 285kts
08-Oct-21 16:52 37.665811 -122.429269 194 10064ft 362kts
08-Oct-21 16:53 37.564620 -122.455344 193 9991ft 373kts
08-Oct-21 16:54 37.462464 -122.480532 190 10144ft 380kts
08-Oct-21 16:55 37.355659 -122.500364 191 14061ft 396kts
08-Oct-21 16:56 37.244099 -122.521032 191 17568ft 416kts
08-Oct-21 16:57 37.127102 -122.542696 192 20340ft 435kts
08-Oct-21 16:58 37.004409 -122.547176 186 22563ft 452kts
08-Oct-21 16:59 36.884904 -122.478299 155 23867ft 488kts
08-Oct-21 17:00 36.767537 -122.390817 156 24796ft 494kts
08-Oct-21 17:01 36.649240 -122.303518 156 25355ft 497kts
08-Oct-21 17:02 36.529926 -122.215884 156 25842ft 498kts
08-Oct-21 17:03 36.411150 -122.128856 156 26326ft 496kts
08-Oct-21 17:04 36.292376 -122.042216 157 26815ft 496kts
08-Oct-21 17:05 36.173380 -121.956026 157 27320ft 497kts
08-Oct-21 17:06 36.050548 -121.883136 170 27817ft 483kts
08-Oct-21 17:07 35.951609 -121.762117 131 28297ft 528kts
08-Oct-21 17:08 35.862936 -121.617598 134 29167ft 527kts
08-Oct-21 17:09 35.773881 -121.475302 135 30807ft 524kts
08-Oct-21 17:10 35.685572 -121.334688 137 33044ft 519kts
08-Oct-21 17:11 35.597767 -121.195095 137 33123ft 514kts
08-Oct-21 17:12 35.509870 -121.056625 142 33125ft 511kts
08-Oct-21 17:13 35.428727 -120.978921 150 33117ft 494kts
08-Oct-21 17:14 35.331367 -120.860219 158 33153ft 475kts
08-Oct-21 17:15 35.228057 -120.755454 153 33157ft 487kts
08-Oct-21 17:16 35.127007 -120.647261 153 33157ft 484kts
08-Oct-21 17:17 35.024800 -120.539999 160 33163ft 469kts
08-Oct-21 17:19 34.917078 -120.455595 162 33168ft 458kts
08-Oct-21 17:20 34.810485 -120.370179 161 33180ft 459kts
08-Oct-21 17:21 34.704634 -120.285057 162 33151ft 456kts
08-Oct-21 17:22 34.598637 -120.200455 162 33156ft 459kts
08-Oct-21 17:23 34.492134 -120.115468 162 33138ft 459kts
08-Oct-21 17:24 34.394107 -120.037328 162 33090ft 453kts
08-Oct-21 17:25 34.282316 -119.948467 162 33068ft 454kts
08-Oct-21 17:26 34.177888 -119.865372 162 32411ft 434kts
08-Oct-21 17:27 34.079033 -119.774987 145 28347ft 477kts
08-Oct-21 17:28 34.001716 -119.635774 129 25752ft 513kts
08-Oct-21 17:29 33.929117 -119.492226 127 23501ft 482kts
08-Oct-21 17:30 33.862904 -119.359752 127 22541ft 448kts
08-Oct-21 17:31 33.799283 -119.239691 121 21150ft 380kts
08-Oct-21 17:32 33.748307 -119.133943 120 18111ft 357kts
08-Oct-21 17:33 33.700336 -119.035342 120 16488ft 355kts
08-Oct-21 17:34 33.650441 -118.933710 120 14755ft 352kts
08-Oct-21 17:35 33.601190 -118.833749 120 13142ft 343kts
08-Oct-21 17:36 33.566474 -118.730541 102 11726ft 328kts
08-Oct-21 17:37 33.548873 -118.627453 101 10713ft 306kts
08-Oct-21 17:38 33.532888 -118.530083 100 9629ft 291kts
08-Oct-21 17:39 33.520719 -118.435548 91 8446ft 282kts
08-Oct-21 17:40 33.518314 -118.341480 90 7097ft 279kts
08-Oct-21 17:41 33.541884 -118.254865 68 5932ft 271kts
08-Oct-21 17:41 33.564365 -118.185210 68 5062ft 261kts
08-Oct-21 17:42 33.602941 -118.110174 55 4923ft 265kts
08-Oct-21 17:44 33.647199 -118.032302 55 4890ft 232kts
08-Oct-21 17:45 33.682888 -117.968841 56 4892ft 226kts
08-Oct-21 17:45 33.720910 -117.927594 26 4449ft 218kts
08-Oct-21 17:46 33.775457 -117.894472 27 3413ft 206kts
08-Oct-21 17:47 33.782306 -117.835066 133 2494ft 190kts
08-Oct-21 17:49 33.732325 -117.832661 209 1059ft 150kts
08-Oct-21 17:50 33.695314 -117.856537 207 483ft 154kts
08-Oct-21 17:50 33.670097 -117.872364 208 69ft 46kts
08-Oct-21 17:51 33.669401 -117.870633 40 69ft 25kts
08-Oct-21 17:52 33.673335 -117.866854 92 69ft 8kts

Navigation Log

Ident Type
Flight plan parsing failed, navigation log unavailable